createdAt,value
2023-05-04T00:02:03.559Z,102345.16
2023-05-04T00:04:30.163Z,102338.88
2023-05-04T00:06:56.731Z,102331.50
2023-05-04T00:09:23.238Z,102331.75
2023-05-04T00:11:49.819Z,102327.38
2023-05-04T00:14:16.399Z,102326.56
2023-05-04T00:16:44.187Z,102326.00
2023-05-04T00:19:11.124Z,102331.69
2023-05-04T00:21:37.788Z,102324.59
2023-05-04T00:24:04.618Z,102325.16
2023-05-04T00:26:31.176Z,102324.31
2023-05-04T00:28:57.721Z,102327.31
2023-05-04T00:31:24.420Z,102326.75
2023-05-04T00:33:51.096Z,102325.09
2023-05-04T00:36:17.601Z,102323.47
2023-05-04T00:38:52.806Z,102320.47
2023-05-04T00:41:20.354Z,102314.47
2023-05-04T00:43:47.981Z,102314.69
2023-05-04T00:46:15.309Z,102304.88
2023-05-04T00:48:43.267Z,102314.69
2023-05-04T00:51:12.363Z,102301.06
2023-05-04T00:53:39.570Z,102300.50
2023-05-04T00:56:07.680Z,102300.50
2023-05-04T00:58:34.633Z,102296.94
2023-05-04T01:01:02.360Z,102291.72
2023-05-04T01:03:30.203Z,102284.63
2023-05-04T01:06:20.279Z,102282.16
2023-05-04T01:08:55.863Z,102290.34
2023-05-04T01:11:30.077Z,102280.50
2023-05-04T01:13:56.883Z,102270.09
2023-05-04T01:16:23.461Z,102260.84
2023-05-04T01:18:50.032Z,102258.66
2023-05-04T01:21:16.585Z,102260.84
2023-05-04T01:23:43.231Z,102256.44
2023-05-04T01:26:39.833Z,102266.81
2023-05-04T01:29:23.464Z,102269.53
2023-05-04T01:31:51.245Z,102271.47
2023-05-04T01:34:18.282Z,102263.50
2023-05-04T01:36:46.043Z,102265.69
2023-05-04T01:39:12.583Z,102260.22
2023-05-04T01:41:39.391Z,102257.50
2023-05-04T01:44:06.145Z,102263.19
2023-05-04T01:46:32.838Z,102258.84
2023-05-04T01:48:59.380Z,102262.66
2023-05-04T01:51:26.013Z,102257.19
2023-05-04T01:53:52.528Z,102257.19
2023-05-04T01:56:19.196Z,102256.38
2023-05-04T01:58:45.803Z,102251.16
2023-05-04T02:01:12.332Z,102251.66
2023-05-04T02:03:38.970Z,102250.34
2023-05-04T02:06:06.175Z,102245.16
2023-05-04T02:08:33.260Z,102248.94
2023-05-04T02:10:59.847Z,102252.50
2023-05-04T02:13:26.380Z,102236.13
2023-05-04T02:15:52.954Z,102237.47
2023-05-04T02:18:19.554Z,102240.44
2023-05-04T02:20:46.241Z,102236.66
2023-05-04T02:23:12.802Z,102245.06
2023-05-04T02:25:41.467Z,102237.72
2023-05-04T02:28:08.351Z,102230.88
2023-05-04T02:30:35.129Z,102233.63
2023-05-04T02:33:01.761Z,102218.53
2023-05-04T02:35:28.337Z,102218.53
2023-05-04T02:37:54.802Z,102216.91
2023-05-04T02:40:21.343Z,102218.00
2023-05-04T02:42:47.874Z,102215.00
2023-05-04T02:45:14.536Z,102213.34
2023-05-04T02:47:41.075Z,102206.81
2023-05-04T02:50:08.353Z,102207.91
2023-05-04T02:52:35.316Z,102216.31
2023-05-04T02:55:03.229Z,102214.69
2023-05-04T02:57:29.934Z,102213.28
2023-05-04T02:59:56.744Z,102220.66
2023-05-04T03:02:23.329Z,102224.19
2023-05-04T03:04:49.854Z,102216.00
2023-05-04T03:07:16.377Z,102210.00
2023-05-04T03:09:43.802Z,102208.09
2023-05-04T03:12:11.291Z,102215.69
2023-05-04T03:14:37.844Z,102202.31
2023-05-04T03:17:04.383Z,102203.97
2023-05-04T03:19:30.970Z,102208.59
2023-05-04T03:21:57.503Z,102206.97
2023-05-04T03:24:24.065Z,102208.06
2023-05-04T03:26:50.609Z,102216.47
2023-05-04T03:29:17.131Z,102202.84
2023-05-04T03:31:43.824Z,102201.19
2023-05-04T03:34:12.632Z,102203.94
2023-05-04T03:36:39.204Z,102205.03
2023-05-04T03:39:05.747Z,102196.00
2023-05-04T03:41:32.219Z,102192.72
2023-05-04T03:43:58.794Z,102204.44
2023-05-04T03:46:25.452Z,102193.78
2023-05-04T03:48:51.975Z,102188.56
2023-05-04T03:51:18.532Z,102185.84
2023-05-04T03:53:45.350Z,102177.94
2023-05-04T03:56:11.844Z,102178.19
2023-05-04T03:58:38.423Z,102180.34
2023-05-04T04:01:05.015Z,102170.53
2023-05-04T04:03:31.837Z,102175.41
2023-05-04T04:05:58.694Z,102167.22
2023-05-04T04:08:25.232Z,102162.59
2023-05-04T04:10:51.786Z,102181.13
2023-05-04T04:13:18.353Z,102171.03
2023-05-04T04:15:46.551Z,102170.22
2023-05-04T04:18:13.238Z,102163.38
2023-05-04T04:20:39.804Z,102161.22
2023-05-04T04:23:06.350Z,102161.78
2023-05-04T04:25:32.956Z,102145.16
2023-05-04T04:27:59.441Z,102154.41
2023-05-04T04:30:25.968Z,102143.25
2023-05-04T04:32:53.839Z,102152.25
2023-05-04T04:35:20.503Z,102147.63
2023-05-04T04:37:47.293Z,102141.34
2023-05-04T04:40:14.398Z,102142.44
2023-05-04T04:42:41.921Z,102147.06
2023-05-04T04:45:08.750Z,102140.78
2023-05-04T04:47:36.022Z,102146.22
2023-05-04T04:50:04.824Z,102138.88
2023-05-04T04:52:32.612Z,102140.53
2023-05-04T04:54:59.921Z,102147.91
2023-05-04T04:57:26.924Z,102147.59
2023-05-04T04:59:53.463Z,102141.88
2023-05-04T05:02:20.700Z,102150.88
2023-05-04T05:04:47.325Z,102150.88
2023-05-04T05:07:13.895Z,102151.38
2023-05-04T05:09:40.512Z,102142.66
2023-05-04T05:12:07.169Z,102151.66
2023-05-04T05:14:33.702Z,102160.66
2023-05-04T05:17:00.501Z,102159.81
2023-05-04T05:19:27.528Z,102144.78
2023-05-04T05:21:54.024Z,102146.69
2023-05-04T05:24:20.598Z,102143.97
2023-05-04T05:26:47.080Z,102147.50
2023-05-04T05:29:13.675Z,102156.50
2023-05-04T05:31:40.272Z,102148.09
2023-05-04T05:34:06.779Z,102146.19
2023-05-04T05:36:33.566Z,102137.75
2023-05-04T05:39:00.153Z,102139.66
2023-05-04T05:41:26.636Z,102144.88
2023-05-04T05:43:53.158Z,102140.78
2023-05-04T05:46:19.808Z,102134.50
2023-05-04T05:48:46.362Z,102142.69
2023-05-04T05:51:12.857Z,102135.31
2023-05-04T05:53:39.360Z,102137.50
2023-05-04T05:56:06.090Z,102136.41
2023-05-04T05:58:32.779Z,102133.69
2023-05-04T06:00:59.519Z,102132.56
2023-05-04T06:03:26.185Z,102133.38
2023-05-04T06:05:52.873Z,102130.38
2023-05-04T06:08:19.343Z,102132.88
2023-05-04T06:10:46.213Z,102116.50
2023-05-04T06:13:12.797Z,102126.59
2023-05-04T06:15:39.379Z,102118.97
2023-05-04T06:18:05.983Z,102128.22
2023-05-04T06:20:32.678Z,102123.88
2023-05-04T06:22:59.231Z,102120.31
2023-05-04T06:25:25.903Z,102123.28
2023-05-04T06:27:52.513Z,102122.75
2023-05-04T06:30:19.136Z,102118.09
2023-05-04T06:32:46.882Z,102114.78
2023-05-04T06:35:13.825Z,102111.56
2023-05-04T06:37:40.410Z,102110.75
2023-05-04T06:40:07.932Z,102109.34
2023-05-04T06:42:34.655Z,102106.94
2023-05-04T06:45:01.169Z,102102.28
2023-05-04T06:47:27.772Z,102097.09
2023-05-04T06:49:54.530Z,102095.72
2023-05-04T06:52:21.661Z,102091.06
2023-05-04T06:54:48.164Z,102092.16
2023-05-04T06:57:14.978Z,102089.72
2023-05-04T06:59:41.510Z,102092.44
2023-05-04T07:02:08.013Z,102086.16
2023-05-04T07:04:34.525Z,102084.50
2023-05-04T07:07:01.041Z,102079.31
2023-05-04T07:09:27.552Z,102083.69
2023-05-04T07:11:54.136Z,102075.50
2023-05-04T07:14:21.810Z,102071.13
2023-05-04T07:16:48.468Z,102072.78
2023-05-04T07:19:15.021Z,102081.22
2023-05-04T07:21:41.539Z,102072.78
2023-05-04T07:24:08.178Z,102068.41
2023-05-04T07:26:34.668Z,102073.59
2023-05-04T07:29:01.187Z,102071.13
2023-05-04T07:31:29.512Z,102068.13
2023-05-04T07:33:56.922Z,102060.22
2023-05-04T07:36:24.908Z,102059.66
2023-05-04T07:38:51.403Z,102050.66
2023-05-04T07:41:18.030Z,102041.66
2023-05-04T07:43:44.520Z,102028.84
2023-05-04T07:46:11.194Z,102029.66
2023-05-04T07:48:37.734Z,102036.50
2023-05-04T07:51:04.580Z,102024.78
2023-05-04T07:53:31.197Z,102026.69
2023-05-04T07:55:57.757Z,102014.97
2023-05-04T07:58:24.338Z,102019.03
2023-05-04T08:00:50.963Z,102033.47
2023-05-04T08:03:17.520Z,102026.13
2023-05-04T08:05:44.112Z,102028.28
2023-05-04T08:08:10.791Z,102011.66
2023-05-04T08:10:38.213Z,102019.03
2023-05-04T08:13:06.140Z,102012.75
2023-05-04T08:15:32.912Z,102014.66
2023-05-04T08:17:59.664Z,102036.47
2023-05-04T08:20:26.211Z,102019.84
2023-05-04T08:22:53.408Z,102022.56
2023-05-04T08:25:20.159Z,102017.13
2023-05-04T08:27:46.805Z,102004.56
2023-05-04T08:30:13.686Z,101998.31
2023-05-04T08:32:40.415Z,102010.03
2023-05-04T08:35:07.314Z,101999.38
2023-05-04T08:37:34.069Z,101993.09
2023-05-04T08:40:00.611Z,101987.41
2023-05-04T08:42:32.179Z,101980.03
2023-05-04T08:44:59.537Z,101981.09
2023-05-04T08:47:27.329Z,101972.91
2023-05-04T08:49:54.926Z,101969.38
2023-05-04T08:52:24.649Z,101972.09
2023-05-04T08:54:56.035Z,101971.28
2023-05-04T08:57:26.103Z,101976.50
2023-05-04T08:59:54.775Z,101962.00
2023-05-04T09:02:24.251Z,101964.75
2023-05-04T09:04:51.704Z,101970.19
2023-05-04T09:07:19.666Z,101972.09
2023-05-04T09:09:47.349Z,101967.47
2023-05-04T09:12:14.478Z,101962.00
2023-05-04T09:14:41.650Z,101953.03
2023-05-04T09:17:18.009Z,101938.34
2023-05-04T09:19:44.693Z,101938.34
2023-05-04T09:22:18.482Z,101939.16
2023-05-04T09:24:46.397Z,101936.41
2023-05-04T09:27:15.918Z,101930.97
2023-05-04T09:29:43.042Z,101938.34
2023-05-04T09:32:15.084Z,101935.59
2023-05-04T09:34:52.047Z,101927.44
2023-05-04T09:37:22.723Z,101922.50
2023-05-04T09:39:51.441Z,101924.44
2023-05-04T09:42:18.807Z,101919.78
2023-05-04T09:44:45.330Z,101923.91
2023-05-04T09:47:12.548Z,101918.47
2023-05-04T09:49:39.916Z,101920.09
2023-05-04T09:52:07.022Z,101908.38
2023-05-04T09:54:36.122Z,101902.91
2023-05-04T09:57:11.730Z,101901.28
2023-05-04T09:59:38.712Z,101894.47
2023-05-04T10:02:18.643Z,101882.75
2023-05-04T10:04:51.249Z,101884.66
2023-05-04T10:07:18.128Z,101886.03
2023-05-04T10:09:46.921Z,101879.50
2023-05-04T10:12:14.510Z,101883.84
2023-05-04T10:14:42.852Z,101874.84
2023-05-04T10:17:24.550Z,101876.50
2023-05-04T10:20:11.859Z,101878.16
2023-05-04T10:22:57.031Z,101871.59
2023-05-04T10:25:50.757Z,101861.28
2023-05-04T10:28:37.484Z,101857.44
2023-05-04T10:31:06.266Z,101853.09
2023-05-04T10:33:40.434Z,101844.06
2023-05-04T10:36:08.363Z,101841.34
2023-05-04T10:38:35.979Z,101843.00
2023-05-04T10:41:15.614Z,101842.19
2023-05-04T10:43:43.001Z,101842.19
2023-05-04T10:46:20.158Z,101826.06
2023-05-04T10:48:47.017Z,101826.06
2023-05-04T10:51:30.394Z,101831.00
2023-05-04T10:54:01.434Z,101843.28
2023-05-04T10:56:28.634Z,101825.28
2023-05-04T10:58:55.411Z,101820.38
2023-05-04T11:01:22.488Z,101823.66
2023-05-04T11:03:49.709Z,101818.75
2023-05-04T11:06:23.915Z,101813.31
2023-05-04T11:09:02.123Z,101796.94
2023-05-04T11:11:28.777Z,101802.13
2023-05-04T11:13:56.514Z,101805.69
2023-05-04T11:16:27.498Z,101802.69
2023-05-04T11:18:54.740Z,101794.50
2023-05-04T11:21:25.733Z,101790.97
2023-05-04T11:23:57.366Z,101787.13
2023-05-04T11:26:24.902Z,101784.16
2023-05-04T11:28:51.677Z,101772.97
2023-05-04T11:31:20.398Z,101768.88
2023-05-04T11:33:51.469Z,101765.06
2023-05-04T11:36:19.052Z,101763.16
2023-05-04T11:38:45.956Z,101758.25
2023-05-04T11:41:13.042Z,101748.97
2023-05-04T11:43:42.401Z,101739.72
2023-05-04T11:46:10.373Z,101733.97
2023-05-04T11:48:38.028Z,101726.91
2023-05-04T11:51:05.607Z,101726.63
2023-05-04T11:53:39.547Z,101726.38
2023-05-04T11:56:08.952Z,101724.16
2023-05-04T11:58:36.159Z,101709.72
2023-05-04T12:01:03.974Z,101717.09
2023-05-04T12:03:43.833Z,101719.53
2023-05-04T12:06:18.475Z,101713.81
2023-05-04T12:08:45.122Z,101708.38
2023-05-04T12:11:20.463Z,101698.81
2023-05-04T12:13:48.827Z,101699.66
2023-05-04T12:16:17.537Z,101704.00
2023-05-04T12:18:46.107Z,101688.16
2023-05-04T12:21:18.620Z,101678.09
2023-05-04T12:23:46.947Z,101695.84
2023-05-04T12:26:15.354Z,101675.13
2023-05-04T12:28:43.098Z,101677.56
2023-05-04T12:31:10.266Z,101678.13
2023-05-04T12:33:36.878Z,101671.56
2023-05-04T12:36:05.815Z,101658.75
2023-05-04T12:38:32.496Z,101661.75
2023-05-04T12:41:02.272Z,101659.84
2023-05-04T12:43:29.228Z,101654.38
2023-05-04T12:45:55.979Z,101648.38
2023-05-04T12:48:22.914Z,101646.47
2023-05-04T12:50:51.079Z,101647.03
2023-05-04T12:53:18.532Z,101645.13
2023-05-04T12:55:45.299Z,101639.13
2023-05-04T12:58:11.889Z,101632.31
2023-05-04T13:00:39.145Z,101630.38
2023-05-04T13:03:06.334Z,101629.00
2023-05-04T13:05:33.231Z,101617.84
2023-05-04T13:07:59.743Z,101609.66
2023-05-04T13:10:26.314Z,101606.38
2023-05-04T13:12:52.951Z,101599.53
2023-05-04T13:15:19.723Z,101586.69
2023-05-04T13:17:46.232Z,101591.88
2023-05-04T13:20:13.362Z,101574.97
2023-05-04T13:22:40.226Z,101575.50
2023-05-04T13:25:07.731Z,101571.66
2023-05-04T13:27:34.804Z,101573.03
2023-05-04T13:30:03.737Z,101574.66
2023-05-04T13:32:31.139Z,101564.56
2023-05-04T13:34:57.908Z,101576.84
2023-05-04T13:37:24.670Z,101572.75
2023-05-04T13:39:51.342Z,101559.63
2023-05-04T13:42:17.985Z,101557.44
2023-05-04T13:44:48.312Z,101538.84
2023-05-04T13:47:16.618Z,101546.78
2023-05-04T13:49:43.496Z,101549.78
2023-05-04T13:52:10.060Z,101543.22
2023-05-04T13:54:37.280Z,101530.94
2023-05-04T13:57:04.457Z,101528.72
2023-05-04T13:59:31.360Z,101535.53
2023-05-04T14:01:57.884Z,101536.09
2023-05-04T14:04:24.492Z,101521.34
2023-05-04T14:06:51.888Z,101517.25
2023-05-04T14:09:19.723Z,101521.63
2023-05-04T14:11:47.515Z,101531.16
2023-05-04T14:14:14.262Z,101515.31
2023-05-04T14:16:40.842Z,101525.94
2023-05-04T14:19:07.463Z,101517.50
2023-05-04T14:21:36.152Z,101515.28
2023-05-04T14:24:03.445Z,101508.44
2023-05-04T14:26:31.771Z,101512.81
2023-05-04T14:28:58.613Z,101498.59
2023-05-04T14:31:25.366Z,101502.69
2023-05-04T14:33:51.931Z,101493.38
2023-05-04T14:36:18.442Z,101488.47
2023-05-04T14:38:45.791Z,101487.88
2023-05-04T14:41:13.681Z,101488.44
2023-05-04T14:43:41.819Z,101472.03
2023-05-04T14:46:12.860Z,101468.75
2023-05-04T14:48:39.547Z,101470.06
2023-05-04T14:51:06.438Z,101458.88
2023-05-04T14:53:36.291Z,101462.13
2023-05-04T14:56:04.557Z,101463.47
2023-05-04T14:58:31.266Z,101454.16
2023-05-04T15:00:57.851Z,101461.28
2023-05-04T15:03:25.946Z,101451.69
2023-05-04T15:05:52.777Z,101444.31
2023-05-04T15:08:19.398Z,101449.22
2023-05-04T15:10:46.074Z,101441.81
2023-05-04T15:13:15.522Z,101437.19
2023-05-04T15:15:42.409Z,101445.91
2023-05-04T15:18:09.118Z,101450.00
2023-05-04T15:20:38.856Z,101450.00
2023-05-04T15:23:14.705Z,101445.34
2023-05-04T15:25:42.047Z,101443.97
2023-05-04T15:28:10.778Z,101443.66
2023-05-04T15:30:38.684Z,101425.34
2023-05-04T15:33:05.606Z,101436.00
2023-05-04T15:35:33.980Z,101414.66
2023-05-04T15:38:00.990Z,101420.66
2023-05-04T15:40:28.523Z,101421.19
2023-05-04T15:42:55.626Z,101414.59
2023-05-04T15:45:22.533Z,101415.44
2023-05-04T15:47:49.383Z,101411.63
2023-05-04T15:50:16.131Z,101407.78
2023-05-04T15:52:42.722Z,101414.88
2023-05-04T15:55:24.401Z,101418.41
2023-05-04T15:57:52.760Z,101416.22
2023-05-04T16:00:20.833Z,101411.31
2023-05-04T16:02:47.479Z,101410.19
2023-05-04T16:05:14.106Z,101418.09
2023-05-04T16:07:40.778Z,101414.28
2023-05-04T16:10:08.200Z,101404.97
2023-05-04T16:12:35.016Z,101410.44
2023-05-04T16:15:01.533Z,101403.53
2023-05-04T16:17:29.309Z,101403.53
2023-05-04T16:19:56.068Z,101408.75
2023-05-04T16:22:22.666Z,101397.50
2023-05-04T16:24:49.161Z,101408.19
2023-05-04T16:27:16.371Z,101395.31
2023-05-04T16:29:42.878Z,101397.47
2023-05-04T16:32:09.475Z,101393.94
2023-05-04T16:34:36.178Z,101401.84
2023-05-04T16:37:02.757Z,101398.78
2023-05-04T16:39:34.230Z,101396.06
2023-05-04T16:42:02.178Z,101399.34
2023-05-04T16:44:31.355Z,101405.63
2023-05-04T16:47:00.796Z,101390.81
2023-05-04T16:49:27.476Z,101387.81
2023-05-04T16:51:55.237Z,101390.25
2023-05-04T16:54:24.005Z,101388.06
2023-05-04T16:56:50.654Z,101392.41
2023-05-04T16:59:17.197Z,101391.59
2023-05-04T17:01:44.224Z,101392.41
2023-05-04T17:04:10.957Z,101383.09
2023-05-04T17:06:38.184Z,101386.38
2023-05-04T17:09:05.213Z,101376.50
2023-05-04T17:11:32.222Z,101380.91
2023-05-04T17:13:59.298Z,101386.06
2023-05-04T17:16:26.069Z,101389.34
2023-05-04T17:18:52.674Z,101372.94
2023-05-04T17:21:19.852Z,101383.56
2023-05-04T17:23:46.470Z,101386.31
2023-05-04T17:26:13.210Z,101379.72
2023-05-04T17:28:39.778Z,101375.06
2023-05-04T17:31:10.010Z,101377.53
2023-05-04T17:33:36.486Z,101374.78
2023-05-04T17:36:03.961Z,101375.59
2023-05-04T17:38:30.547Z,101374.47
2023-05-04T17:40:57.297Z,101373.41
2023-05-04T17:43:23.794Z,101375.28
2023-05-04T17:45:50.384Z,101374.22
2023-05-04T17:48:16.971Z,101379.69
2023-05-04T17:50:43.488Z,101373.91
2023-05-04T17:53:10.101Z,101379.38
2023-05-04T17:55:36.847Z,101387.31
2023-05-04T17:58:03.469Z,101374.72
2023-05-04T18:00:30.008Z,101391.94
2023-05-04T18:02:56.574Z,101388.94
2023-05-04T18:05:23.330Z,101385.38
2023-05-04T18:07:49.842Z,101385.38
2023-05-04T18:10:16.483Z,101379.91
2023-05-04T18:12:43.114Z,101391.66
2023-05-04T18:15:09.972Z,101389.75
2023-05-04T18:17:37.973Z,101385.09
2023-05-04T18:20:08.184Z,101390.25
2023-05-04T18:22:34.968Z,101380.41
2023-05-04T18:25:01.843Z,101381.22
2023-05-04T18:27:34.919Z,101384.78
2023-05-04T18:30:02.695Z,101385.63
2023-05-04T18:32:29.287Z,101380.16
2023-05-04T18:34:57.935Z,101390.25
2023-05-04T18:37:25.513Z,101379.31
2023-05-04T18:39:52.116Z,101386.44
2023-05-04T18:42:18.653Z,101389.16
2023-05-04T18:44:45.924Z,101384.78
2023-05-04T18:47:12.518Z,101388.06
2023-05-04T18:49:39.088Z,101394.63
2023-05-04T18:52:05.831Z,101386.44
2023-05-04T18:54:32.744Z,101385.63
2023-05-04T18:56:59.466Z,101395.44
2023-05-04T18:59:26.025Z,101387.25
2023-05-04T19:01:53.005Z,101391.09
2023-05-04T19:04:19.634Z,101400.13
2023-05-04T19:06:47.617Z,101395.44
2023-05-04T19:09:14.885Z,101407.22
2023-05-04T19:11:41.458Z,101398.19
2023-05-04T19:14:08.059Z,101394.63
2023-05-04T19:16:34.636Z,101391.91
2023-05-04T19:19:01.127Z,101403.66
2023-05-04T19:21:28.708Z,101395.72
2023-05-04T19:23:55.287Z,101401.72
2023-05-04T19:26:21.899Z,101398.47
2023-05-04T19:28:48.421Z,101393.81
2023-05-04T19:31:15.623Z,101394.91
2023-05-04T19:33:48.536Z,101395.72
2023-05-04T19:36:16.890Z,101405.84
2023-05-04T19:38:43.655Z,101399.56
2023-05-04T19:41:10.287Z,101411.31
2023-05-04T19:43:38.449Z,101404.22
2023-05-04T19:46:05.048Z,101414.06
2023-05-04T19:48:31.613Z,101416.81
2023-05-04T19:50:58.221Z,101406.16
2023-05-04T19:53:25.120Z,101413.25
2023-05-04T19:55:52.350Z,101417.91
2023-05-04T19:58:18.889Z,101417.91
2023-05-04T20:00:45.421Z,101418.72
2023-05-04T20:03:12.019Z,101419.03
2023-05-04T20:05:38.534Z,101421.75
2023-05-04T20:08:05.533Z,101418.22
2023-05-04T20:10:32.388Z,101419.03
2023-05-04T20:12:59.036Z,101422.03
2023-05-04T20:15:25.955Z,101427.50
2023-05-04T20:17:52.735Z,101418.50
2023-05-04T20:20:21.484Z,101414.94
2023-05-04T20:22:52.013Z,101422.34
2023-05-04T20:25:19.967Z,101423.16
2023-05-04T20:27:48.695Z,101422.66
2023-05-04T20:30:15.675Z,101417.19
2023-05-04T20:32:42.687Z,101419.59
2023-05-04T20:35:09.699Z,101419.91
2023-05-04T20:37:36.283Z,101415.53
2023-05-04T20:40:02.950Z,101414.72
2023-05-04T20:42:29.865Z,101410.03
2023-05-04T20:44:56.350Z,101415.53
2023-05-04T20:47:22.982Z,101414.72
2023-05-04T20:49:49.555Z,101415.81
2023-05-04T20:52:16.048Z,101415.81
2023-05-04T20:54:42.566Z,101422.09
2023-05-04T20:57:09.378Z,101426.75
2023-05-04T20:59:35.908Z,101427.34
2023-05-04T21:02:02.419Z,101425.72
2023-05-04T21:04:28.974Z,101428.47
2023-05-04T21:06:57.012Z,101421.06
2023-05-04T21:09:23.541Z,101428.47
2023-05-04T21:11:50.650Z,101433.13
2023-05-04T21:14:17.135Z,101435.84
2023-05-04T21:16:43.688Z,101418.91
2023-05-04T21:19:10.279Z,101431.47
2023-05-04T21:21:40.736Z,101428.72
2023-05-04T21:24:13.964Z,101428.22
2023-05-04T21:26:41.380Z,101435.31
2023-05-04T21:29:15.143Z,101434.50
2023-05-04T21:31:42.094Z,101423.84
2023-05-04T21:34:08.881Z,101419.47
2023-05-04T21:36:35.820Z,101426.88
2023-05-04T21:39:02.350Z,101405.78
2023-05-04T21:41:29.748Z,101406.91
2023-05-04T21:43:56.306Z,101412.38
2023-05-04T21:46:23.146Z,101416.72
2023-05-04T21:48:51.594Z,101429.09
2023-05-04T21:51:20.621Z,101437.81
2023-05-04T21:53:47.391Z,101435.06
2023-05-04T21:56:13.932Z,101431.81
2023-05-04T21:58:40.962Z,101431.28
2023-05-04T22:01:08.292Z,101413.25
2023-05-04T22:03:35.231Z,101414.88
2023-05-04T22:06:02.046Z,101422.56
2023-05-04T22:08:29.434Z,101426.94
2023-05-04T22:10:57.264Z,101428.56
2023-05-04T22:13:24.299Z,101433.22
2023-05-04T22:15:51.219Z,101431.59
2023-05-04T22:18:17.830Z,101438.13
2023-05-04T22:20:44.569Z,101438.97
2023-05-04T22:23:11.125Z,101433.78
2023-05-04T22:25:38.146Z,101449.38
2023-05-04T22:28:05.412Z,101437.63
2023-05-04T22:30:32.301Z,101431.34
2023-05-04T22:32:58.922Z,101430.53
2023-05-04T22:35:25.476Z,101426.97
2023-05-04T22:37:51.995Z,101429.69
2023-05-04T22:40:18.740Z,101431.63
2023-05-04T22:42:45.657Z,101434.34
2023-05-04T22:45:17.889Z,101422.59
2023-05-04T22:47:45.736Z,101427.25
2023-05-04T22:50:13.503Z,101439.59
2023-05-04T22:52:40.441Z,101443.97
2023-05-04T22:55:08.270Z,101448.34
2023-05-04T22:57:35.134Z,101450.00
2023-05-04T23:00:01.715Z,101472.69
2023-05-04T23:02:28.442Z,101465.31
2023-05-04T23:04:55.306Z,101477.06
2023-05-04T23:07:21.937Z,101483.34
2023-05-04T23:09:48.489Z,101498.94
2023-05-04T23:12:15.311Z,101526.03
2023-05-04T23:14:41.988Z,101556.94
2023-05-04T23:17:09.376Z,101579.94
2023-05-04T23:19:36.085Z,101557.25
2023-05-04T23:22:02.603Z,101549.84
2023-05-04T23:24:29.135Z,101570.09
2023-05-04T23:26:55.668Z,101579.41
2023-05-04T23:29:22.196Z,101568.19
2023-05-04T23:31:48.720Z,101538.41
2023-05-04T23:34:15.483Z,101531.25
2023-05-04T23:36:42.129Z,101526.91
2023-05-04T23:39:09.023Z,101515.16
2023-05-04T23:41:35.746Z,101498.75
2023-05-04T23:44:03.332Z,101479.91
2023-05-04T23:46:29.917Z,101480.72
2023-05-04T23:48:56.533Z,101480.72
2023-05-04T23:51:23.115Z,101466.22
2023-05-04T23:53:49.948Z,101458.28
2023-05-04T23:56:17.440Z,101456.69
2023-05-04T23:58:43.943Z,101449.28
